Time;durP1;ratioP1;P1;durP2;ratioP2;P2;SDS_P1;SDS_P2;PMS_P1;PMS_P2;Temp;Humidity;BMP_temperature;BMP_pressure;BME280_temperature;BME280_humidity;BME280_pressure;Samples;Min_cycle;Max_cycle;Signal;HPM_P1;HPM_P2
2021/11/09 18:23:16;;;;;;;10.70;6.40;;;;;;;17.60;62.48;102617.59;4810402;29;20026;-83
2021/11/09 18:25:48;;;;;;;13.90;6.82;;;;;;;17.57;62.49;102613.22;4795068;30;20032;-83
2021/11/09 19:06:57;;;;;;;8.35;5.57;;;;;;;17.68;62.27;102626.41;4824020;29;20158;-83
2021/11/09 19:12:24;;;;;;;8.82;5.20;;;;;;;17.66;62.13;102618.59;4795004;30;20042;-83
2021/11/09 19:27:09;;;;;;;7.10;4.72;;;;;;;17.67;62.02;102619.47;4848193;29;20084;-83
2021/11/09 19:33:13;;;;;;;8.30;5.35;;;;;;;17.68;62.23;102621.19;5528384;24;20049;-81
2021/11/09 19:35:42;;;;;;;7.93;5.50;;;;;;;17.67;62.19;102622.06;4830085;29;20039;-83
2021/11/09 19:38:36;;;;;;;8.23;5.15;;;;;;;17.67;62.04;102614.25;4815123;29;20038;-83
2021/11/09 20:03:39;;;;;;;7.80;4.78;;;;;;;17.80;61.59;102594.53;5121208;24;20728;-81
2021/11/09 20:17:26;;;;;;;9.52;5.20;;;;;;;18.04;64.57;102591.47;5869997;24;20020;-79
2021/11/09 20:23:27;;;;;;;8.57;5.30;;;;;;;17.82;63.47;102580.69;4811927;29;20027;-81
2021/11/09 20:25:54;;;;;;;10.30;5.50;;;;;;;17.75;63.52;102594.44;4807205;29;20130;-78
2021/11/09 20:28:22;;;;;;;8.90;5.20;;;;;;;17.67;63.64;102588.22;4795159;29;20535;-79
2021/11/09 20:30:50;;;;;;;7.88;4.90;;;;;;;17.63;63.91;102597.69;4793814;29;20077;-79
2021/11/09 20:33:15;;;;;;;10.43;5.25;;;;;;;17.58;64.18;102590.66;4796338;29;20122;-80
2021/11/09 20:35:41;;;;;;;10.45;5.30;;;;;;;17.55;64.03;102593.19;4797115;29;20043;-79
2021/11/09 20:38:07;;;;;;;7.50;5.30;;;;;;;17.51;64.12;102599.19;4799841;29;20039;-80
2021/11/09 20:40:32;;;;;;;8.50;5.32;;;;;;;17.51;64.60;102593.97;4815033;29;20120;-80
2021/11/09 20:42:58;;;;;;;9.13;5.65;;;;;;;17.48;64.51;102584.38;4812654;29;20053;-80
2021/11/09 20:45:25;;;;;;;8.95;5.25;;;;;;;17.46;64.76;102586.97;4797692;29;20050;-81
2021/11/09 20:47:51;;;;;;;8.05;4.88;;;;;;;17.45;64.65;102580.00;4813325;29;20035;-80
2021/11/09 20:50:22;;;;;;;7.85;5.05;;;;;;;17.41;64.57;102578.19;4797431;29;20404;-80
2021/11/09 20:52:49;;;;;;;8.40;5.30;;;;;;;17.42;64.80;102577.34;4815173;29;20060;-81
2021/11/09 20:55:15;;;;;;;8.23;5.60;;;;;;;17.41;64.66;102575.59;4814425;29;20055;-80
2021/11/09 20:57:41;;;;;;;7.10;5.07;;;;;;;17.41;64.75;102569.50;4798913;29;20042;-80
2021/11/09 21:00:12;;;;;;;10.10;5.60;;;;;;;17.40;64.80;102567.78;4814837;29;20046;-80
2021/11/09 21:02:57;;;;;;;9.75;5.57;;;;;;;17.38;64.98;102569.47;4813368;29;20027;-83
2021/11/09 21:05:29;;;;;;;9.20;5.55;;;;;;;17.36;64.85;102560.75;4831396;29;20042;-81
2021/11/09 21:08:15;;;;;;;8.68;5.32;;;;;;;17.37;64.69;102558.16;4829230;29;20046;-83
2021/11/09 21:10:43;;;;;;;9.15;6.00;;;;;;;17.37;65.02;102560.75;4826630;29;20082;-82
2021/11/09 21:18:53;;;;;;;10.65;6.07;;;;;;;17.33;64.76;102551.13;4824905;29;20047;-83
2021/11/09 21:24:41;;;;;;;8.57;5.53;;;;;;;17.34;64.61;102552.91;4807792;30;20058;-81
2021/11/09 21:27:10;;;;;;;7.85;5.45;;;;;;;17.34;65.01;102545.09;4797312;30;20035;-82
2021/11/09 21:36:13;;;;;;;8.25;5.72;;;;;;;17.33;64.91;102545.06;4812289;29;20065;-84
2021/11/09 21:38:43;;;;;;;8.90;6.35;;;;;;;17.32;64.94;102541.59;4795683;29;20093;-83
2021/11/09 21:44:35;;;;;;;9.18;5.88;;;;;;;17.32;64.87;102541.59;4811260;29;20042;-84
2021/11/09 21:50:37;;;;;;;7.18;5.28;;;;;;;17.33;64.94;102542.47;4810228;29;20033;-80
2021/11/09 21:53:08;;;;;;;8.90;5.80;;;;;;;17.31;64.83;102529.44;4794687;30;20042;-82
2021/11/09 21:55:44;;;;;;;10.48;6.10;;;;;;;17.32;64.95;102540.72;4794438;30;20149;-81
2021/11/09 22:01:33;;;;;;;10.07;5.78;;;;;;;17.28;65.29;102537.19;4808701;30;20077;-81
2021/11/09 22:03:58;;;;;;;7.68;5.22;;;;;;;17.32;65.08;102543.31;4772463;30;20537;-81
2021/11/09 22:06:30;;;;;;;9.55;6.20;;;;;;;17.31;65.21;102545.06;4788239;30;20047;-82
2021/11/09 22:08:58;;;;;;;9.30;5.78;;;;;;;17.34;65.57;102541.63;4815668;29;20031;-81
2021/11/09 22:11:25;;;;;;;7.20;5.45;;;;;;;17.34;65.53;102537.28;4818068;29;20424;-80
2021/11/09 22:13:50;;;;;;;7.72;5.47;;;;;;;17.39;65.43;102547.78;4806790;29;20396;-79
2021/11/09 22:16:35;;;;;;;8.40;5.80;;;;;;;17.38;65.22;102544.31;4798731;29;20045;-81
2021/11/09 22:19:34;;;;;;;7.25;5.05;;;;;;;17.40;65.71;102539.16;4823887;29;20062;-83
2021/11/09 22:25:45;;;;;;;8.57;5.35;;;;;;;17.45;64.89;102543.56;4810947;29;20076;-81
2021/11/09 22:28:31;;;;;;;10.27;6.35;;;;;;;17.48;64.76;102540.13;4808525;30;20047;-84
2021/11/09 22:34:44;;;;;;;10.75;5.50;;;;;;;17.48;65.04;102551.44;4792432;29;20069;-83
2021/11/09 22:37:49;;;;;;;7.78;5.50;;;;;;;17.49;65.46;102554.94;4774465;30;20071;-83
2021/11/09 22:43:37;;;;;;;9.82;5.95;;;;;;;17.49;64.93;102541.91;4773257;30;20089;-82
2021/11/09 22:46:03;;;;;;;9.05;6.13;;;;;;;17.46;64.89;102547.94;4771543;30;20041;-82
2021/11/09 22:48:30;;;;;;;7.43;5.43;;;;;;;17.43;65.16;102552.19;4772955;30;20036;-82
2021/11/09 22:50:58;;;;;;;8.65;5.75;;;;;;;17.42;65.18;102547.84;4763523;30;20066;-81
2021/11/09 22:53:29;;;;;;;9.00;6.10;;;;;;;17.41;65.18;102539.16;4771288;30;20027;-81
2021/11/09 22:55:55;;;;;;;7.40;5.60;;;;;;;17.38;65.19;102546.91;4772105;30;20036;-82
2021/11/09 22:58:22;;;;;;;8.68;5.60;;;;;;;17.39;65.09;102548.66;4771829;30;20096;-82
2021/11/09 23:04:30;;;;;;;7.15;5.80;;;;;;;17.40;65.17;102546.97;4790340;30;20111;-81
2021/11/09 23:06:58;;;;;;;8.48;5.88;;;;;;;17.38;65.02;102546.91;4791232;30;20043;-82
2021/11/09 23:13:19;;;;;;;11.35;6.15;;;;;;;17.40;65.20;102547.81;4806029;30;20065;-82
2021/11/09 23:15:46;;;;;;;9.85;6.00;;;;;;;17.37;65.28;102546.88;4810393;30;20046;-82
2021/11/09 23:25:28;;;;;;;8.65;5.72;;;;;;;17.39;65.02;102550.38;4787412;30;20051;-82
2021/11/09 23:27:59;;;;;;;7.72;5.60;;;;;;;17.37;65.26;102550.34;4751016;30;20128;-83
2021/11/09 23:30:58;;;;;;;7.35;5.47;;;;;;;17.37;64.86;102541.69;4738520;30;20072;-81
2021/11/09 23:37:10;;;;;;;8.32;5.75;;;;;;;17.36;65.15;102539.94;4754791;30;20043;-82
2021/11/09 23:39:41;;;;;;;8.43;5.97;;;;;;;17.35;64.97;102539.03;4754356;30;20052;-82
2021/11/09 23:42:45;;;;;;;8.93;6.05;;;;;;;17.36;65.20;102535.59;4754794;30;20036;-82
2021/11/09 23:45:19;;;;;;;7.45;5.32;;;;;;;17.37;64.95;102531.25;4755437;30;20036;-82
2021/11/09 23:47:46;;;;;;;9.85;6.15;;;;;;;17.38;64.95;102520.03;4726039;30;20048;-82
2021/11/09 23:50:50;;;;;;;8.95;5.57;;;;;;;17.39;64.88;102524.38;4755151;30;20100;-82
2021/11/09 23:53:20;;;;;;;9.27;5.55;;;;;;;17.37;64.81;102521.72;4754566;30;20045;-82
2021/11/09 23:55:47;;;;;;;7.45;5.50;;;;;;;17.35;64.86;102514.75;4755146;30;20036;-82
